sensor_id;sensor_type;location;lat;lon;timestamp;pressure;altitude;pressure_sealevel;temperature;humidity
17054;BME280;8643;48.824;11.422;2023-04-01T00:01:22;95601.34;;;7.33;100.00
17054;BME280;8643;48.824;11.422;2023-04-01T00:03:52;95601.69;;;7.31;100.00
17054;BME280;8643;48.824;11.422;2023-04-01T00:06:21;95592.72;;;7.31;100.00
17054;BME280;8643;48.824;11.422;2023-04-01T00:08:50;95601.69;;;7.31;100.00
17054;BME280;8643;48.824;11.422;2023-04-01T00:11:21;95585.47;;;7.23;100.00
17054;BME280;8643;48.824;11.422;2023-04-01T00:13:50;95593.78;;;7.14;100.00
17054;BME280;8643;48.824;11.422;2023-04-01T00:16:19;95592.97;;;7.13;100.00
17054;BME280;8643;48.824;11.422;2023-04-01T00:18:51;95587.19;;;7.15;100.00
17054;BME280;8643;48.824;11.422;2023-04-01T00:21:21;95597.97;;;7.11;100.00
17054;BME280;8643;48.824;11.422;2023-04-01T00:23:50;95583.34;;;7.16;100.00
17054;BME280;8643;48.824;11.422;2023-04-01T00:26:20;95599.56;;;7.12;100.00
17054;BME280;8643;48.824;11.422;2023-04-01T00:28:49;95587.75;;;7.08;100.00
17054;BME280;8643;48.824;11.422;2023-04-01T00:31:18;95580.75;;;7.07;100.00
17054;BME280;8643;48.824;11.422;2023-04-01T00:33:49;95594.56;;;7.14;100.00
17054;BME280;8643;48.824;11.422;2023-04-01T00:36:21;95586.19;;;7.07;100.00
17054;BME280;8643;48.824;11.422;2023-04-01T00:38:50;95583.69;;;7.02;100.00
17054;BME280;8643;48.824;11.422;2023-04-01T00:41:20;95593.56;;;6.94;100.00
17054;BME280;8643;48.824;11.422;2023-04-01T00:43:51;95584.34;;;6.99;100.00
17054;BME280;8643;48.824;11.422;2023-04-01T00:46:21;95593.44;;;7.03;100.00
17054;BME280;8643;48.824;11.422;2023-04-01T00:48:54;95592.41;;;6.95;100.00
17054;BME280;8643;48.824;11.422;2023-04-01T00:51:29;95590.59;;;6.87;100.00
17054;BME280;8643;48.824;11.422;2023-04-01T00:54:00;95589.38;;;6.85;100.00
17054;BME280;8643;48.824;11.422;2023-04-01T00:56:34;95585.75;;;6.81;100.00
17054;BME280;8643;48.824;11.422;2023-04-01T00:59:10;95585.06;;;6.84;100.00
17054;BME280;8643;48.824;11.422;2023-04-01T01:01:40;95578.34;;;6.81;100.00
17054;BME280;8643;48.824;11.422;2023-04-01T01:04:22;95571.34;;;6.80;100.00
17054;BME280;8643;48.824;11.422;2023-04-01T01:07:06;95570.53;;;6.79;100.00
17054;BME280;8643;48.824;11.422;2023-04-01T01:09:46;95573.63;;;6.78;100.00
17054;BME280;8643;48.824;11.422;2023-04-01T01:12:25;95583.34;;;6.79;100.00
17054;BME280;8643;48.824;11.422;2023-04-01T01:15:08;95573.81;;;6.73;100.00
17054;BME280;8643;48.824;11.422;2023-04-01T01:17:54;95576.44;;;6.69;100.00
17054;BME280;8643;48.824;11.422;2023-04-01T01:20:57;95576.22;;;6.62;100.00
17054;BME280;8643;48.824;11.422;2023-04-01T01:24:06;95574.84;;;6.56;100.00
17054;BME280;8643;48.824;11.422;2023-04-01T01:27:00;95563.06;;;6.52;100.00
17054;BME280;8643;48.824;11.422;2023-04-01T01:33:13;95564.75;;;6.44;100.00
17054;BME280;8643;48.824;11.422;2023-04-01T01:35:49;95563.41;;;6.38;100.00
17054;BME280;8643;48.824;11.422;2023-04-01T01:38:24;95560.22;;;6.36;100.00
17054;BME280;8643;48.824;11.422;2023-04-01T01:41:07;95559.41;;;6.35;100.00
17054;BME280;8643;48.824;11.422;2023-04-01T01:43:42;95554.78;;;6.36;100.00
17054;BME280;8643;48.824;11.422;2023-04-01T01:46:18;95541.66;;;6.38;100.00
17054;BME280;8643;48.824;11.422;2023-04-01T01:48:50;95548.09;;;6.33;100.00
17054;BME280;8643;48.824;11.422;2023-04-01T01:51:23;95543.31;;;6.30;100.00
17054;BME280;8643;48.824;11.422;2023-04-01T01:53:52;95546.28;;;6.25;100.00
17054;BME280;8643;48.824;11.422;2023-04-01T01:56:25;95544.91;;;6.31;100.00
17054;BME280;8643;48.824;11.422;2023-04-01T01:59:00;95549.22;;;6.32;100.00
17054;BME280;8643;48.824;11.422;2023-04-01T02:01:35;95543.31;;;6.30;100.00
17054;BME280;8643;48.824;11.422;2023-04-01T02:04:14;95553.19;;;6.35;100.00
17054;BME280;8643;48.824;11.422;2023-04-01T02:06:51;95551.94;;;6.32;100.00
17054;BME280;8643;48.824;11.422;2023-04-01T02:09:21;95552.84;;;6.36;100.00
17054;BME280;8643;48.824;11.422;2023-04-01T02:11:53;95555.56;;;6.36;100.00
17054;BME280;8643;48.824;11.422;2023-04-01T02:14:28;95550.25;;;6.40;100.00
17054;BME280;8643;48.824;11.422;2023-04-01T02:17:05;95546.84;;;6.43;100.00
17054;BME280;8643;48.824;11.422;2023-04-01T02:19:39;95560.22;;;6.36;100.00
17054;BME280;8643;48.824;11.422;2023-04-01T02:22:18;95553.41;;;6.42;100.00
17054;BME280;8643;48.824;11.422;2023-04-01T02:24:50;95563.94;;;6.43;100.00
17054;BME280;8643;48.824;11.422;2023-04-01T02:27:21;95565.66;;;6.48;100.00
17054;BME280;8643;48.824;11.422;2023-04-01T02:29:50;95563.16;;;6.43;100.00
17054;BME280;8643;48.824;11.422;2023-04-01T02:32:20;95562.38;;;6.42;100.00
17054;BME280;8643;48.824;11.422;2023-04-01T02:34:49;95565.31;;;6.37;100.00
17054;BME280;8643;48.824;11.422;2023-04-01T02:37:20;95583.53;;;6.37;100.00
17054;BME280;8643;48.824;11.422;2023-04-01T02:39:49;95571.56;;;6.38;100.00
17054;BME280;8643;48.824;11.422;2023-04-01T02:42:18;95574.63;;;6.49;100.00
17054;BME280;8643;48.824;11.422;2023-04-01T02:44:47;95575.06;;;6.51;100.00
17054;BME280;8643;48.824;11.422;2023-04-01T02:47:15;95582.31;;;6.47;100.00
17054;BME280;8643;48.824;11.422;2023-04-01T02:49:44;95589.00;;;6.49;100.00
17054;BME280;8643;48.824;11.422;2023-04-01T02:52:12;95569.19;;;6.49;100.00
17054;BME280;8643;48.824;11.422;2023-04-01T02:54:42;95583.31;;;6.42;100.00
17054;BME280;8643;48.824;11.422;2023-04-01T02:57:11;95586.25;;;6.37;100.00
17054;BME280;8643;48.824;11.422;2023-04-01T02:59:39;95589.47;;;6.39;100.00
17054;BME280;8643;48.824;11.422;2023-04-01T03:02:08;95585.16;;;6.38;100.00
17054;BME280;8643;48.824;11.422;2023-04-01T03:04:37;95592.50;;;6.37;100.00
17054;BME280;8643;48.824;11.422;2023-04-01T03:07:06;95589.56;;;6.42;100.00
17054;BME280;8643;48.824;11.422;2023-04-01T03:09:36;95596.34;;;6.36;100.00
17054;BME280;8643;48.824;11.422;2023-04-01T03:12:06;95601.75;;;6.24;100.00
17054;BME280;8643;48.824;11.422;2023-04-01T03:14:46;95604.91;;;6.14;100.00
17054;BME280;8643;48.824;11.422;2023-04-01T03:17:14;95603.53;;;6.08;100.00
17054;BME280;8643;48.824;11.422;2023-04-01T03:19:43;95607.84;;;6.09;100.00
17054;BME280;8643;48.824;11.422;2023-04-01T03:22:12;95602.97;;;6.14;100.00
17054;BME280;8643;48.824;11.422;2023-04-01T03:24:40;95605.34;;;6.16;100.00
17054;BME280;8643;48.824;11.422;2023-04-01T03:27:10;95600.59;;;6.13;100.00
17054;BME280;8643;48.824;11.422;2023-04-01T03:29:39;95610.34;;;6.14;100.00
17054;BME280;8643;48.824;11.422;2023-04-01T03:32:08;95603.44;;;6.16;100.00
17054;BME280;8643;48.824;11.422;2023-04-01T03:34:37;95603.13;;;6.18;100.00
17054;BME280;8643;48.824;11.422;2023-04-01T03:37:08;95611.28;;;6.18;100.00
17054;BME280;8643;48.824;11.422;2023-04-01T03:39:37;95608.22;;;6.19;100.00
17054;BME280;8643;48.824;11.422;2023-04-01T03:42:05;95614.91;;;6.22;100.00
17054;BME280;8643;48.824;11.422;2023-04-01T03:44:36;95616.50;;;6.23;100.00
17054;BME280;8643;48.824;11.422;2023-04-01T03:47:10;95629.41;;;6.26;100.00
17054;BME280;8643;48.824;11.422;2023-04-01T03:49:38;95620.13;;;6.27;100.00
17054;BME280;8643;48.824;11.422;2023-04-01T03:52:09;95632.59;;;6.28;100.00
17054;BME280;8643;48.824;11.422;2023-04-01T03:54:39;95631.91;;;6.31;100.00
17054;BME280;8643;48.824;11.422;2023-04-01T03:57:08;95639.84;;;6.36;100.00
17054;BME280;8643;48.824;11.422;2023-04-01T03:59:38;95631.66;;;6.24;100.00
17054;BME280;8643;48.824;11.422;2023-04-01T04:02:07;95633.41;;;6.08;100.00
17054;BME280;8643;48.824;11.422;2023-04-01T04:04:37;95629.03;;;5.94;100.00
17054;BME280;8643;48.824;11.422;2023-04-01T04:07:06;95631.50;;;5.87;100.00
17054;BME280;8643;48.824;11.422;2023-04-01T04:09:55;95629.91;;;5.86;100.00
17054;BME280;8643;48.824;11.422;2023-04-01T04:12:23;95630.25;;;5.84;100.00
17054;BME280;8643;48.824;11.422;2023-04-01T04:14:54;95629.13;;;5.85;100.00
17054;BME280;8643;48.824;11.422;2023-04-01T04:17:23;95618.25;;;5.85;100.00
17054;BME280;8643;48.824;11.422;2023-04-01T04:19:52;95627.97;;;5.86;100.00
17054;BME280;8643;48.824;11.422;2023-04-01T04:22:21;95631.97;;;5.89;100.00
17054;BME280;8643;48.824;11.422;2023-04-01T04:24:50;95628.59;;;5.92;100.00
17054;BME280;8643;48.824;11.422;2023-04-01T04:27:19;95632.91;;;5.93;100.00
17054;BME280;8643;48.824;11.422;2023-04-01T04:29:59;95632.41;;;6.00;100.00
17054;BME280;8643;48.824;11.422;2023-04-01T04:32:29;95629.59;;;6.09;100.00
17054;BME280;8643;48.824;11.422;2023-04-01T04:34:58;95642.06;;;6.10;100.00
17054;BME280;8643;48.824;11.422;2023-04-01T04:37:27;95634.34;;;6.12;100.00
17054;BME280;8643;48.824;11.422;2023-04-01T04:39:56;95635.41;;;6.19;100.00
17054;BME280;8643;48.824;11.422;2023-04-01T04:42:24;95641.34;;;6.13;100.00
17054;BME280;8643;48.824;11.422;2023-04-01T04:45:01;95636.63;;;6.10;100.00
17054;BME280;8643;48.824;11.422;2023-04-01T04:47:30;95635.03;;;6.09;100.00
17054;BME280;8643;48.824;11.422;2023-04-01T04:49:59;95641.84;;;6.15;100.00
17054;BME280;8643;48.824;11.422;2023-04-01T04:52:28;95637.19;;;6.15;100.00
17054;BME280;8643;48.824;11.422;2023-04-01T04:54:57;95639.78;;;6.12;100.00
17054;BME280;8643;48.824;11.422;2023-04-01T04:57:25;95635.91;;;6.13;100.00
17054;BME280;8643;48.824;11.422;2023-04-01T04:59:55;95643.41;;;6.16;100.00
17054;BME280;8643;48.824;11.422;2023-04-01T05:02:53;95647.59;;;6.13;100.00
17054;BME280;8643;48.824;11.422;2023-04-01T05:05:22;95643.75;;;6.14;100.00
17054;BME280;8643;48.824;11.422;2023-04-01T05:07:50;95643.28;;;6.12;100.00
17054;BME280;8643;48.824;11.422;2023-04-01T05:10:19;95644.06;;;6.13;100.00
17054;BME280;8643;48.824;11.422;2023-04-01T05:12:49;95650.66;;;6.12;100.00
17054;BME280;8643;48.824;11.422;2023-04-01T05:15:21;95635.25;;;6.16;100.00
17054;BME280;8643;48.824;11.422;2023-04-01T05:17:51;95649.00;;;6.19;100.00
17054;BME280;8643;48.824;11.422;2023-04-01T05:20:20;95650.44;;;6.17;100.00
17054;BME280;8643;48.824;11.422;2023-04-01T05:23:01;95647.59;;;6.13;100.00
17054;BME280;8643;48.824;11.422;2023-04-01T05:25:30;95640.69;;;6.16;100.00
17054;BME280;8643;48.824;11.422;2023-04-01T05:28:00;95641.63;;;6.20;100.00
17054;BME280;8643;48.824;11.422;2023-04-01T05:30:28;95637.78;;;6.21;100.00
17054;BME280;8643;48.824;11.422;2023-04-01T05:33:02;95632.00;;;6.22;100.00
17054;BME280;8643;48.824;11.422;2023-04-01T05:35:31;95644.34;;;6.20;100.00
17054;BME280;8643;48.824;11.422;2023-04-01T05:38:00;95641.19;;;6.30;100.00
17054;BME280;8643;48.824;11.422;2023-04-01T05:40:29;95647.09;;;6.32;100.00
17054;BME280;8643;48.824;11.422;2023-04-01T05:42:59;95648.94;;;6.40;100.00
17054;BME280;8643;48.824;11.422;2023-04-01T05:45:28;95634.53;;;6.28;100.00
17054;BME280;8643;48.824;11.422;2023-04-01T05:48:13;95638.69;;;6.25;100.00
17054;BME280;8643;48.824;11.422;2023-04-01T05:50:42;95638.03;;;6.28;100.00
17054;BME280;8643;48.824;11.422;2023-04-01T05:53:11;95640.63;;;6.37;100.00
17054;BME280;8643;48.824;11.422;2023-04-01T05:55:43;95639.75;;;6.33;100.00
17054;BME280;8643;48.824;11.422;2023-04-01T05:58:13;95645.84;;;6.42;100.00
17054;BME280;8643;48.824;11.422;2023-04-01T06:00:46;95650.97;;;6.43;100.00
17054;BME280;8643;48.824;11.422;2023-04-01T06:03:29;95649.84;;;6.45;100.00
17054;BME280;8643;48.824;11.422;2023-04-01T06:05:59;95668.88;;;6.45;100.00
17054;BME280;8643;48.824;11.422;2023-04-01T06:08:30;95654.94;;;6.46;100.00
17054;BME280;8643;48.824;11.422;2023-04-01T06:11:10;95649.50;;;6.46;100.00
17054;BME280;8643;48.824;11.422;2023-04-01T06:14:00;95658.59;;;6.50;100.00
17054;BME280;8643;48.824;11.422;2023-04-01T06:16:52;95661.09;;;6.55;100.00
17054;BME280;8643;48.824;11.422;2023-04-01T06:19:34;95653.72;;;6.56;100.00
17054;BME280;8643;48.824;11.422;2023-04-01T06:22:41;95652.38;;;6.62;100.00
17054;BME280;8643;48.824;11.422;2023-04-01T06:25:39;95653.84;;;6.59;100.00
17054;BME280;8643;48.824;11.422;2023-04-01T06:31:55;95647.97;;;6.70;100.00
17054;BME280;8643;48.824;11.422;2023-04-01T06:35:11;95664.19;;;6.78;100.00
17054;BME280;8643;48.824;11.422;2023-04-01T06:38:20;95661.34;;;6.75;100.00
17054;BME280;8643;48.824;11.422;2023-04-01T06:41:14;95657.59;;;6.79;100.00
17054;BME280;8643;48.824;11.422;2023-04-01T06:43:58;95656.25;;;6.86;100.00
17054;BME280;8643;48.824;11.422;2023-04-01T06:46:58;95649.56;;;6.95;100.00
17054;BME280;8643;48.824;11.422;2023-04-01T06:49:57;95657.16;;;7.02;100.00
17054;BME280;8643;48.824;11.422;2023-04-01T06:53:15;95644.72;;;7.01;100.00
17054;BME280;8643;48.824;11.422;2023-04-01T06:56:10;95652.75;;;7.10;100.00
17054;BME280;8643;48.824;11.422;2023-04-01T06:58:45;95652.31;;;7.08;100.00
17054;BME280;8643;48.824;11.422;2023-04-01T07:01:22;95657.97;;;7.15;100.00
17054;BME280;8643;48.824;11.422;2023-04-01T07:03:59;95646.50;;;7.22;100.00
17054;BME280;8643;48.824;11.422;2023-04-01T07:06:39;95648.53;;;7.37;100.00
17054;BME280;8643;48.824;11.422;2023-04-01T07:09:15;95651.81;;;7.55;100.00
17054;BME280;8643;48.824;11.422;2023-04-01T07:12:15;95644.31;;;7.52;100.00
17054;BME280;8643;48.824;11.422;2023-04-01T07:15:16;95649.28;;;7.62;100.00
17054;BME280;8643;48.824;11.422;2023-04-01T07:17:55;95643.72;;;7.59;100.00
17054;BME280;8643;48.824;11.422;2023-04-01T07:20:28;95651.00;;;7.95;100.00
17054;BME280;8643;48.824;11.422;2023-04-01T07:23:07;95646.88;;;8.14;100.00
17054;BME280;8643;48.824;11.422;2023-04-01T07:26:15;95643.91;;;8.06;100.00
17054;BME280;8643;48.824;11.422;2023-04-01T07:29:08;95636.59;;;8.23;100.00
17054;BME280;8643;48.824;11.422;2023-04-01T07:35:13;95643.94;;;8.35;100.00
17054;BME280;8643;48.824;11.422;2023-04-01T07:38:11;95641.06;;;8.15;100.00
17054;BME280;8643;48.824;11.422;2023-04-01T07:40:53;95642.50;;;8.25;100.00
17054;BME280;8643;48.824;11.422;2023-04-01T07:43:53;95638.72;;;8.30;100.00
17054;BME280;8643;48.824;11.422;2023-04-01T07:46:52;95644.88;;;8.42;100.00
17054;BME280;8643;48.824;11.422;2023-04-01T07:49:29;95643.19;;;8.50;100.00
17054;BME280;8643;48.824;11.422;2023-04-01T07:52:06;95652.81;;;9.08;100.00
17054;BME280;8643;48.824;11.422;2023-04-01T07:54:49;95652.09;;;8.63;100.00
17054;BME280;8643;48.824;11.422;2023-04-01T07:57:25;95652.81;;;8.76;100.00
17054;BME280;8643;48.824;11.422;2023-04-01T08:00:08;95656.16;;;9.01;100.00
17054;BME280;8643;48.824;11.422;2023-04-01T08:03:31;95657.56;;;9.11;99.28
17054;BME280;8643;48.824;11.422;2023-04-01T08:06:15;95643.53;;;9.28;98.44
17054;BME280;8643;48.824;11.422;2023-04-01T08:09:01;95650.13;;;9.98;96.68
17054;BME280;8643;48.824;11.422;2023-04-01T08:12:05;95649.94;;;9.52;93.90
17054;BME280;8643;48.824;11.422;2023-04-01T08:15:12;95656.34;;;9.24;96.61
17054;BME280;8643;48.824;11.422;2023-04-01T08:18:03;95643.81;;;8.91;96.20
17054;BME280;8643;48.824;11.422;2023-04-01T08:20:41;95643.38;;;9.05;98.82
17054;BME280;8643;48.824;11.422;2023-04-01T08:23:17;95652.09;;;8.79;98.70
17054;BME280;8643;48.824;11.422;2023-04-01T08:25:51;95644.88;;;8.71;98.89
17054;BME280;8643;48.824;11.422;2023-04-01T08:28:32;95671.22;;;8.79;97.57
17054;BME280;8643;48.824;11.422;2023-04-01T08:31:10;95641.19;;;8.79;98.72
17054;BME280;8643;48.824;11.422;2023-04-01T08:33:46;95655.03;;;8.70;96.42
17054;BME280;8643;48.824;11.422;2023-04-01T08:36:21;95642.16;;;8.71;97.52
17054;BME280;8643;48.824;11.422;2023-04-01T08:39:06;95666.97;;;8.66;96.99
17054;BME280;8643;48.824;11.422;2023-04-01T08:45:18;95650.09;;;8.76;97.79
17054;BME280;8643;48.824;11.422;2023-04-01T08:48:34;95636.53;;;8.95;97.25
17054;BME280;8643;48.824;11.422;2023-04-01T08:55:00;95647.38;;;9.08;96.53
17054;BME280;8643;48.824;11.422;2023-04-01T08:58:16;95645.59;;;8.99;96.00
17054;BME280;8643;48.824;11.422;2023-04-01T09:01:17;95635.97;;;9.06;95.16
17054;BME280;8643;48.824;11.422;2023-04-01T09:04:23;95649.63;;;9.06;95.25
17054;BME280;8643;48.824;11.422;2023-04-01T09:07:18;95644.44;;;9.01;97.00
17054;BME280;8643;48.824;11.422;2023-04-01T09:10:20;95648.34;;;8.99;95.99
17054;BME280;8643;48.824;11.422;2023-04-01T09:13:26;95643.19;;;9.14;97.19
17054;BME280;8643;48.824;11.422;2023-04-01T09:16:19;95647.72;;;9.06;98.28
17054;BME280;8643;48.824;11.422;2023-04-01T09:19:17;95639.16;;;9.08;96.68
17054;BME280;8643;48.824;11.422;2023-04-01T09:22:13;95650.78;;;9.05;96.57
17054;BME280;8643;48.824;11.422;2023-04-01T09:27:57;95650.59;;;8.97;96.78
17054;BME280;8643;48.824;11.422;2023-04-01T09:31:08;95653.88;;;8.87;96.99
17054;BME280;8643;48.824;11.422;2023-04-01T09:34:35;95643.66;;;9.00;96.78
17054;BME280;8643;48.824;11.422;2023-04-01T09:37:20;95641.91;;;8.92;96.50
17054;BME280;8643;48.824;11.422;2023-04-01T09:40:15;95646.19;;;9.09;97.76
17054;BME280;8643;48.824;11.422;2023-04-01T09:43:23;95647.09;;;9.13;97.35
17054;BME280;8643;48.824;11.422;2023-04-01T09:46:11;95676.41;;;9.00;97.37
17054;BME280;8643;48.824;11.422;2023-04-01T09:49:57;95643.66;;;9.00;97.09
17054;BME280;8643;48.824;11.422;2023-04-01T09:52:41;95640.75;;;8.93;97.76
17054;BME280;8643;48.824;11.422;2023-04-01T09:55:53;95632.91;;;8.91;97.51
17054;BME280;8643;48.824;11.422;2023-04-01T09:59:12;95638.81;;;8.93;97.68
17054;BME280;8643;48.824;11.422;2023-04-01T10:09:44;95629.75;;;9.05;100.00
17054;BME280;8643;48.824;11.422;2023-04-01T10:12:49;95631.41;;;9.10;99.42
17054;BME280;8643;48.824;11.422;2023-04-01T10:16:08;95636.69;;;9.18;99.09
17054;BME280;8643;48.824;11.422;2023-04-01T10:19:16;95629.03;;;9.24;96.31
17054;BME280;8643;48.824;11.422;2023-04-01T10:22:21;95623.44;;;9.36;95.54
17054;BME280;8643;48.824;11.422;2023-04-01T10:28:29;95614.91;;;9.22;97.27
17054;BME280;8643;48.824;11.422;2023-04-01T10:36:54;95632.66;;;8.96;100.00
17054;BME280;8643;48.824;11.422;2023-04-01T10:40:23;95628.41;;;8.83;100.00
17054;BME280;8643;48.824;11.422;2023-04-01T10:47:13;95623.31;;;8.81;100.00
17054;BME280;8643;48.824;11.422;2023-04-01T10:50:22;95644.69;;;8.63;100.00
17054;BME280;8643;48.824;11.422;2023-04-01T10:53:40;95646.66;;;8.35;100.00
17054;BME280;8643;48.824;11.422;2023-04-01T10:56:42;95641.19;;;8.06;100.00
17054;BME280;8643;48.824;11.422;2023-04-01T11:00:15;95639.22;;;7.91;100.00
17054;BME280;8643;48.824;11.422;2023-04-01T11:07:43;95645.84;;;7.78;100.00
17054;BME280;8643;48.824;11.422;2023-04-01T11:11:20;95645.63;;;7.70;100.00
17054;BME280;8643;48.824;11.422;2023-04-01T11:14:31;95637.25;;;7.63;100.00
17054;BME280;8643;48.824;11.422;2023-04-01T11:17:56;95643.94;;;7.66;100.00
17054;BME280;8643;48.824;11.422;2023-04-01T11:21:42;95642.03;;;7.54;100.00
17054;BME280;8643;48.824;11.422;2023-04-01T11:24:56;95652.94;;;7.54;100.00
17054;BME280;8643;48.824;11.422;2023-04-01T11:28:01;95648.97;;;7.51;100.00
17054;BME280;8643;48.824;11.422;2023-04-01T11:31:04;95649.22;;;7.46;100.00
17054;BME280;8643;48.824;11.422;2023-04-01T11:33:48;95655.78;;;7.45;100.00
17054;BME280;8643;48.824;11.422;2023-04-01T11:36:34;95645.00;;;7.49;100.00
17054;BME280;8643;48.824;11.422;2023-04-01T11:39:22;95645.09;;;7.52;100.00
17054;BME280;8643;48.824;11.422;2023-04-01T11:42:17;95649.41;;;7.53;100.00
17054;BME280;8643;48.824;11.422;2023-04-01T11:45:07;95645.66;;;7.58;100.00
17054;BME280;8643;48.824;11.422;2023-04-01T11:48:11;95638.63;;;7.57;100.00
17054;BME280;8643;48.824;11.422;2023-04-01T11:51:01;95639.56;;;7.49;100.00
17054;BME280;8643;48.824;11.422;2023-04-01T11:53:47;95655.69;;;7.42;100.00
17054;BME280;8643;48.824;11.422;2023-04-01T11:56:41;95667.72;;;7.41;100.00
17054;BME280;8643;48.824;11.422;2023-04-01T12:00:03;95647.03;;;7.52;100.00
17054;BME280;8643;48.824;11.422;2023-04-01T12:02:55;95654.19;;;7.44;100.00
17054;BME280;8643;48.824;11.422;2023-04-01T12:05:42;95651.03;;;7.30;100.00
17054;BME280;8643;48.824;11.422;2023-04-01T12:08:31;95659.09;;;7.26;100.00
17054;BME280;8643;48.824;11.422;2023-04-01T12:11:16;95657.88;;;7.24;100.00
17054;BME280;8643;48.824;11.422;2023-04-01T12:13:52;95659.00;;;7.23;100.00
17054;BME280;8643;48.824;11.422;2023-04-01T12:16:49;95665.13;;;7.20;100.00
17054;BME280;8643;48.824;11.422;2023-04-01T12:19:33;95661.38;;;7.24;100.00
17054;BME280;8643;48.824;11.422;2023-04-01T12:22:39;95659.44;;;7.37;100.00
17054;BME280;8643;48.824;11.422;2023-04-01T12:25:35;95664.44;;;7.23;100.00
17054;BME280;8643;48.824;11.422;2023-04-01T12:28:19;95670.81;;;7.27;100.00
17054;BME280;8643;48.824;11.422;2023-04-01T12:31:18;95662.41;;;7.32;100.00
17054;BME280;8643;48.824;11.422;2023-04-01T12:37:14;95674.84;;;7.45;100.00
17054;BME280;8643;48.824;11.422;2023-04-01T12:40:02;95664.09;;;7.37;100.00
17054;BME280;8643;48.824;11.422;2023-04-01T12:42:57;95662.81;;;7.59;100.00
17054;BME280;8643;48.824;11.422;2023-04-01T12:45:31;95661.00;;;7.63;100.00
17054;BME280;8643;48.824;11.422;2023-04-01T12:51:50;95658.66;;;7.89;100.00
17054;BME280;8643;48.824;11.422;2023-04-01T12:55:05;95656.84;;;7.81;100.00
17054;BME280;8643;48.824;11.422;2023-04-01T12:58:19;95665.38;;;7.80;100.00
17054;BME280;8643;48.824;11.422;2023-04-01T13:01:15;95663.91;;;7.82;100.00
17054;BME280;8643;48.824;11.422;2023-04-01T13:07:31;95662.31;;;7.81;100.00
17054;BME280;8643;48.824;11.422;2023-04-01T13:10:24;95674.38;;;7.68;100.00
17054;BME280;8643;48.824;11.422;2023-04-01T13:16:19;95657.44;;;7.75;100.00
17054;BME280;8643;48.824;11.422;2023-04-01T13:18:59;95672.63;;;7.88;100.00
17054;BME280;8643;48.824;11.422;2023-04-01T13:21:47;95664.78;;;7.86;100.00
17054;BME280;8643;48.824;11.422;2023-04-01T13:24:41;95678.56;;;7.78;100.00
17054;BME280;8643;48.824;11.422;2023-04-01T13:27:20;95675.94;;;7.81;100.00
17054;BME280;8643;48.824;11.422;2023-04-01T13:30:04;95681.47;;;7.85;100.00
17054;BME280;8643;48.824;11.422;2023-04-01T13:32:44;95669.41;;;7.98;100.00
17054;BME280;8643;48.824;11.422;2023-04-01T13:35:38;95688.28;;;8.19;100.00
17054;BME280;8643;48.824;11.422;2023-04-01T13:38:33;95679.06;;;8.24;100.00
17054;BME280;8643;48.824;11.422;2023-04-01T13:41:24;95680.13;;;8.19;100.00
17054;BME280;8643;48.824;11.422;2023-04-01T13:44:02;95703.13;;;8.06;100.00
17054;BME280;8643;48.824;11.422;2023-04-01T13:47:23;95687.00;;;8.01;100.00
17054;BME280;8643;48.824;11.422;2023-04-01T13:50:26;95678.97;;;7.92;100.00
17054;BME280;8643;48.824;11.422;2023-04-01T13:53:31;95682.69;;;8.00;100.00
17054;BME280;8643;48.824;11.422;2023-04-01T13:56:16;95688.97;;;8.16;100.00
17054;BME280;8643;48.824;11.422;2023-04-01T13:59:22;95686.66;;;8.02;100.00
17054;BME280;8643;48.824;11.422;2023-04-01T14:02:19;95678.53;;;8.18;100.00
17054;BME280;8643;48.824;11.422;2023-04-01T14:05:32;95693.91;;;8.39;100.00
17054;BME280;8643;48.824;11.422;2023-04-01T14:08:29;95680.16;;;8.35;100.00
17054;BME280;8643;48.824;11.422;2023-04-01T14:11:19;95678.28;;;8.52;100.00
17054;BME280;8643;48.824;11.422;2023-04-01T14:14:05;95682.28;;;8.54;100.00
17054;BME280;8643;48.824;11.422;2023-04-01T14:17:14;95684.06;;;8.94;100.00
17054;BME280;8643;48.824;11.422;2023-04-01T14:20:20;95678.53;;;8.91;100.00
17054;BME280;8643;48.824;11.422;2023-04-01T14:26:18;95673.06;;;8.91;100.00
17054;BME280;8643;48.824;11.422;2023-04-01T14:29:01;95681.81;;;8.96;100.00
17054;BME280;8643;48.824;11.422;2023-04-01T14:31:47;95684.97;;;8.98;100.00
17054;BME280;8643;48.824;11.422;2023-04-01T14:34:37;95687.06;;;9.05;100.00
17054;BME280;8643;48.824;11.422;2023-04-01T14:37:26;95680.63;;;8.97;100.00
17054;BME280;8643;48.824;11.422;2023-04-01T14:40:24;95685.16;;;8.90;100.00
17054;BME280;8643;48.824;11.422;2023-04-01T14:43:20;95683.53;;;8.73;100.00
17054;BME280;8643;48.824;11.422;2023-04-01T14:46:30;95692.69;;;8.80;100.00
17054;BME280;8643;48.824;11.422;2023-04-01T14:49:15;95680.47;;;8.90;100.00
17054;BME280;8643;48.824;11.422;2023-04-01T14:51:46;95680.47;;;9.06;100.00
17054;BME280;8643;48.824;11.422;2023-04-01T14:54:19;95683.63;;;8.92;100.00
17054;BME280;8643;48.824;11.422;2023-04-01T14:57:05;95688.91;;;9.01;100.00
17054;BME280;8643;48.824;11.422;2023-04-01T14:59:51;95690.59;;;9.06;100.00
17054;BME280;8643;48.824;11.422;2023-04-01T15:02:39;95694.56;;;8.92;100.00
17054;BME280;8643;48.824;11.422;2023-04-01T15:05:27;95687.75;;;8.86;100.00
17054;BME280;8643;48.824;11.422;2023-04-01T15:08:09;95690.06;;;8.84;100.00
17054;BME280;8643;48.824;11.422;2023-04-01T15:11:28;95694.63;;;8.64;100.00
17054;BME280;8643;48.824;11.422;2023-04-01T15:14:21;95696.53;;;8.63;100.00
17054;BME280;8643;48.824;11.422;2023-04-01T15:17:13;95701.75;;;8.69;100.00
17054;BME280;8643;48.824;11.422;2023-04-01T15:20:10;95695.75;;;8.63;100.00
17054;BME280;8643;48.824;11.422;2023-04-01T15:23:03;95700.13;;;8.52;100.00
17054;BME280;8643;48.824;11.422;2023-04-01T15:25:56;95706.97;;;8.46;100.00
17054;BME280;8643;48.824;11.422;2023-04-01T15:28:39;95708.34;;;8.39;100.00
17054;BME280;8643;48.824;11.422;2023-04-01T15:31:16;95705.56;;;8.23;100.00
17054;BME280;8643;48.824;11.422;2023-04-01T15:34:18;95706.34;;;8.24;100.00
17054;BME280;8643;48.824;11.422;2023-04-01T15:36:57;95718.75;;;8.21;100.00